Time;durP1;ratioP1;P1;durP2;ratioP2;P2;SDS_P1;SDS_P2;PMS_P1;PMS_P2;Temp;Humidity;BMP_temperature;BMP_pressure;BME280_temperature;BME280_humidity;BME280_pressure;Samples;Min_cycle;Max_cycle;Signal;HPM_P1;HPM_P2
2022/04/10 00:00:17;;;;;;;4.18;1.80;;;;;;;4.35;65.95;98703.63;5026677;28;20101;-62
2022/04/10 00:02:44;;;;;;;6.65;1.77;;;;;;;4.40;66.16;98719.00;5044477;28;20496;-62
2022/04/10 00:05:09;;;;;;;5.28;1.58;;;;;;;4.33;64.64;98713.06;5044402;28;20049;-63
2022/04/10 00:07:34;;;;;;;6.82;1.70;;;;;;;4.41;65.53;98715.59;5044290;28;20041;-63
2022/04/10 00:10:00;;;;;;;7.32;1.70;;;;;;;4.42;65.71;98714.69;5044673;28;20025;-63
2022/04/10 00:12:25;;;;;;;6.50;1.90;;;;;;;4.44;66.25;98720.69;5044333;28;20032;-63
2022/04/10 00:14:51;;;;;;;7.63;1.73;;;;;;;4.51;66.93;98721.44;5026455;28;20029;-63
2022/04/10 00:17:16;;;;;;;9.75;1.98;;;;;;;4.54;66.83;98727.41;5044135;28;20017;-63
2022/04/10 00:19:43;;;;;;;7.47;1.73;;;;;;;4.56;66.80;98735.09;5044132;28;20092;-63
2022/04/10 00:22:09;;;;;;;6.82;1.75;;;;;;;4.54;65.43;98732.56;5044205;28;20026;-63
2022/04/10 00:24:34;;;;;;;9.27;1.88;;;;;;;4.52;64.94;98728.31;5044039;28;20021;-63
2022/04/10 00:27:00;;;;;;;5.53;1.63;;;;;;;4.50;64.15;98730.03;5044031;28;20087;-64
2022/04/10 00:29:25;;;;;;;4.50;1.33;;;;;;;4.50;63.71;98738.59;5043513;28;20428;-63
2022/04/10 00:31:51;;;;;;;8.35;1.50;;;;;;;4.50;64.96;98737.75;5043806;28;20650;-65
2022/04/10 00:34:17;;;;;;;12.98;1.90;;;;;;;4.48;64.27;98732.63;5043740;28;20036;-64
2022/04/10 00:36:42;;;;;;;5.18;1.35;;;;;;;4.52;65.14;98744.56;5044152;28;20083;-63
2022/04/10 00:39:07;;;;;;;4.40;1.75;;;;;;;4.47;63.18;98747.19;5043932;28;20018;-63
2022/04/10 00:41:33;;;;;;;12.95;1.88;;;;;;;4.45;64.43;98738.66;5043862;28;20025;-63
2022/04/10 00:44:02;;;;;;;11.23;1.90;;;;;;;4.49;64.19;98752.31;5043765;28;20021;-63
2022/04/10 00:46:28;;;;;;;12.05;1.65;;;;;;;4.46;64.07;98750.63;5043640;28;20342;-63
2022/04/10 00:48:53;;;;;;;6.50;1.80;;;;;;;4.43;64.26;98740.38;5043662;28;20047;-62
2022/04/10 00:54:03;;;;;;;4.60;1.45;;;;;;;4.44;65.10;98759.22;5043445;28;20060;-63
2022/04/10 00:56:29;;;;;;;7.38;1.95;;;;;;;4.44;64.76;98760.06;5043843;28;20025;-63
2022/04/10 00:58:55;;;;;;;5.80;1.55;;;;;;;4.40;64.19;98753.25;5043629;28;20028;-63
2022/04/10 01:01:20;;;;;;;8.02;1.75;;;;;;;4.40;63.70;98760.97;5043326;28;20195;-62
2022/04/10 01:03:46;;;;;;;7.60;1.95;;;;;;;4.40;64.06;98766.13;5043374;28;20017;-63
2022/04/10 01:06:11;;;;;;;13.55;1.70;;;;;;;4.40;64.28;98760.97;5043491;28;20064;-62
2022/04/10 01:08:37;;;;;;;14.13;2.75;;;;;;;4.45;64.91;98766.94;5043385;28;20022;-63
2022/04/10 01:11:03;;;;;;;10.18;2.35;;;;;;;4.42;65.29;98769.53;5043372;28;20033;-62
2022/04/10 01:13:28;;;;;;;12.95;2.70;;;;;;;4.44;64.47;98769.50;5043269;28;20036;-63
2022/04/10 01:15:55;;;;;;;10.45;1.73;;;;;;;4.41;65.15;98767.81;5043448;28;20064;-63
2022/04/10 01:18:20;;;;;;;7.32;2.30;;;;;;;4.37;64.43;98770.41;5043122;28;20021;-63
2022/04/10 01:20:46;;;;;;;9.20;2.88;;;;;;;4.34;64.27;98766.16;5042956;28;20035;-64
2022/04/10 01:23:12;;;;;;;18.45;2.28;;;;;;;4.31;65.09;98771.34;5043194;28;20081;-61
2022/04/10 01:25:37;;;;;;;8.38;1.48;;;;;;;4.28;65.24;98771.38;5043186;28;20454;-62
2022/04/10 01:28:10;;;;;;;4.65;1.48;;;;;;;4.30;65.46;98779.88;5043147;28;20056;-63
2022/04/10 01:30:35;;;;;;;13.73;2.92;;;;;;;4.27;64.97;98779.91;5042765;28;20060;-62
2022/04/10 01:33:01;;;;;;;20.13;2.50;;;;;;;4.26;64.35;98788.50;5043150;28;20030;-66
2022/04/10 01:35:27;;;;;;;7.10;2.25;;;;;;;4.21;65.12;98789.41;5043036;28;20029;-62
2022/04/10 01:37:54;;;;;;;12.45;2.58;;;;;;;4.18;65.34;98794.56;5043095;28;20045;-63
2022/04/10 01:40:20;;;;;;;10.32;2.15;;;;;;;4.16;65.13;98791.16;5044412;28;20032;-62
2022/04/10 01:42:45;;;;;;;15.07;2.03;;;;;;;4.14;63.98;98795.44;5047274;28;20017;-64
2022/04/10 01:45:10;;;;;;;6.35;1.65;;;;;;;4.09;64.34;98803.19;5047057;28;20029;-64
2022/04/10 01:47:36;;;;;;;10.82;1.95;;;;;;;4.06;64.05;98807.50;5046879;28;20121;-62
2022/04/10 01:50:02;;;;;;;7.72;1.80;;;;;;;3.99;63.85;98801.56;5029363;28;20055;-62
2022/04/10 01:52:27;;;;;;;6.50;2.20;;;;;;;4.01;64.89;98809.25;5046922;28;20077;-63
2022/04/10 01:54:53;;;;;;;18.33;2.60;;;;;;;3.98;65.54;98807.56;5046835;28;20048;-62
2022/04/10 01:57:18;;;;;;;11.30;2.10;;;;;;;3.94;64.64;98813.59;5046782;28;20077;-62
2022/04/10 01:59:44;;;;;;;12.13;2.17;;;;;;;3.91;64.55;98814.47;5046720;28;20025;-62
2022/04/10 02:02:09;;;;;;;9.43;2.08;;;;;;;3.91;64.46;98814.47;5046656;28;20489;-63
2022/04/10 02:04:35;;;;;;;11.35;2.15;;;;;;;3.88;64.54;98818.75;5046639;28;20021;-62
2022/04/10 02:07:01;;;;;;;11.43;2.30;;;;;;;3.77;65.08;98801.69;5046565;28;20017;-63
2022/04/10 02:09:26;;;;;;;5.13;1.65;;;;;;;3.86;65.78;98815.34;5046637;28;20027;-63
2022/04/10 02:11:51;;;;;;;9.90;2.45;;;;;;;3.88;65.51;98813.63;5046528;28;20567;-63
2022/04/10 02:14:17;;;;;;;6.95;2.30;;;;;;;3.91;66.11;98824.75;5046399;28;20029;-63
2022/04/10 02:16:42;;;;;;;9.48;2.00;;;;;;;3.87;65.90;98822.16;5046369;28;20072;-63
2022/04/10 02:19:07;;;;;;;12.45;1.90;;;;;;;3.88;66.06;98824.75;5046378;28;20021;-63
2022/04/10 02:21:33;;;;;;;11.15;2.00;;;;;;;3.87;66.38;98827.31;5046625;28;20051;-63
2022/04/10 02:23:58;;;;;;;10.32;2.67;;;;;;;3.87;65.90;98829.88;5046438;28;20025;-63
2022/04/10 02:26:23;;;;;;;22.88;3.65;;;;;;;3.85;66.08;98824.75;5046371;28;20032;-63
2022/04/10 02:28:49;;;;;;;8.52;2.05;;;;;;;3.80;65.43;98827.34;5046152;28;20061;-63
2022/04/10 02:31:14;;;;;;;5.22;1.40;;;;;;;3.80;65.26;98821.38;5028033;28;20050;-64
2022/04/10 02:33:39;;;;;;;24.50;1.95;;;;;;;3.85;65.83;98819.63;5046102;28;20017;-63
2022/04/10 02:36:05;;;;;;;4.10;1.40;;;;;;;3.80;64.94;98827.34;5046231;28;20389;-63
2022/04/10 02:38:31;;;;;;;16.92;1.80;;;;;;;3.81;65.33;98825.66;5046206;28;20159;-64
2022/04/10 02:40:56;;;;;;;6.80;1.63;;;;;;;3.78;65.04;98831.66;5046140;28;20038;-64
2022/04/10 02:43:21;;;;;;;5.43;1.55;;;;;;;3.77;65.43;98829.09;5028292;28;20081;-62
2022/04/10 02:45:47;;;;;;;9.00;1.70;;;;;;;3.77;65.28;98829.09;5045823;28;20033;-62
2022/04/10 02:48:12;;;;;;;12.52;1.98;;;;;;;3.74;64.79;98826.56;5046079;28;20071;-62
2022/04/10 02:50:38;;;;;;;12.68;2.00;;;;;;;3.78;65.42;98835.94;5045983;28;20036;-62
2022/04/10 02:53:04;;;;;;;9.93;2.63;;;;;;;3.91;64.06;98831.56;5045557;28;20124;-63
2022/04/10 02:55:29;;;;;;;6.38;1.65;;;;;;;3.80;64.51;98834.22;5045735;28;20476;-62
2022/04/10 02:57:55;;;;;;;6.85;1.60;;;;;;;3.72;64.12;98826.56;5045684;28;20057;-62
2022/04/10 03:00:21;;;;;;;8.55;1.40;;;;;;;3.74;64.91;98835.09;5045669;28;20033;-63
2022/04/10 03:02:46;;;;;;;6.65;1.58;;;;;;;3.72;63.99;98837.66;5045574;28;20104;-62
2022/04/10 03:05:12;;;;;;;7.28;2.55;;;;;;;3.68;64.33;98841.13;5045650;28;20238;-62
2022/04/10 03:07:37;;;;;;;11.23;1.90;;;;;;;3.66;64.09;98830.00;5045587;28;20509;-62
2022/04/10 03:10:04;;;;;;;6.90;1.65;;;;;;;3.63;64.54;98832.59;5045503;28;20505;-64
2022/04/10 03:12:30;;;;;;;8.35;1.85;;;;;;;3.66;63.93;98839.44;5045271;28;20021;-63
2022/04/10 03:14:55;;;;;;;13.93;3.05;;;;;;;3.65;63.98;98833.44;5045440;28;20052;-63
2022/04/10 03:17:21;;;;;;;10.25;1.63;;;;;;;3.62;64.15;98843.72;5045274;28;20086;-63
2022/04/10 03:19:46;;;;;;;8.15;1.88;;;;;;;3.59;64.50;98846.31;5045459;28;20026;-62
2022/04/10 03:22:12;;;;;;;5.45;1.35;;;;;;;3.62;64.29;98848.00;5027542;28;20084;-64
2022/04/10 03:24:37;;;;;;;9.25;1.67;;;;;;;3.58;64.39;98852.28;5045398;28;20024;-62
2022/04/10 03:27:02;;;;;;;8.02;1.55;;;;;;;3.56;64.44;98854.03;5045166;28;20037;-64
2022/04/10 03:29:28;;;;;;;6.30;1.63;;;;;;;3.53;63.67;98849.75;5044800;28;20080;-63
2022/04/10 03:31:53;;;;;;;5.53;1.42;;;;;;;3.53;63.80;98859.16;5045050;28;20035;-63
2022/04/10 03:34:18;;;;;;;7.93;2.00;;;;;;;3.51;63.59;98855.75;5045189;28;20026;-63
2022/04/10 03:36:44;;;;;;;5.55;1.23;;;;;;;3.44;63.87;98855.78;5044922;28;20030;-63
2022/04/10 03:39:09;;;;;;;12.13;2.53;;;;;;;3.45;63.82;98852.34;5044898;28;20029;-63
2022/04/10 03:41:34;;;;;;;12.48;2.08;;;;;;;3.46;64.07;98866.91;5045054;28;20022;-63
2022/04/10 03:44:00;;;;;;;6.15;1.73;;;;;;;3.35;64.36;98840.44;5044929;28;20017;-63
2022/04/10 03:46:25;;;;;;;7.25;1.60;;;;;;;3.44;64.35;98858.34;5044757;28;20036;-63
2022/04/10 03:48:51;;;;;;;7.28;1.52;;;;;;;3.50;64.49;98872.84;5044764;28;20047;-63
2022/04/10 03:51:16;;;;;;;9.85;1.75;;;;;;;3.47;64.04;98875.44;5044770;28;20021;-63
2022/04/10 03:53:41;;;;;;;13.45;1.70;;;;;;;3.46;63.55;98884.00;5044687;28;20021;-62
2022/04/10 03:56:07;;;;;;;11.85;2.65;;;;;;;3.42;63.85;98872.88;5044523;28;20081;-63
2022/04/10 03:58:32;;;;;;;7.97;1.80;;;;;;;3.45;63.97;98885.69;5026954;28;20025;-63
2022/04/10 04:00:58;;;;;;;6.07;1.35;;;;;;;3.35;63.99;98879.75;5044712;28;20029;-62
2022/04/10 04:03:23;;;;;;;11.38;2.03;;;;;;;3.44;64.03;98899.41;5044002;28;20025;-63
2022/04/10 04:05:49;;;;;;;9.38;2.47;;;;;;;3.44;63.73;98901.09;5044419;28;20032;-62
2022/04/10 04:08:15;;;;;;;8.75;2.83;;;;;;;3.45;63.56;98903.66;5044400;28;20056;-63
2022/04/10 04:10:41;;;;;;;5.43;1.30;;;;;;;3.43;63.83;98901.97;5044300;28;20052;-62
2022/04/10 04:13:06;;;;;;;11.40;2.05;;;;;;;3.44;63.73;98909.66;5044340;28;20088;-63
2022/04/10 04:15:31;;;;;;;5.97;1.90;;;;;;;3.48;63.73;98913.06;5044449;28;20025;-63
2022/04/10 04:17:57;;;;;;;3.83;1.48;;;;;;;3.54;63.33;98917.31;5044469;28;20112;-63
2022/04/10 04:20:22;;;;;;;11.48;1.98;;;;;;;3.56;63.58;98921.56;5044303;28;20038;-63
2022/04/10 04:22:50;;;;;;;10.90;1.95;;;;;;;3.57;63.92;98925.00;5044266;28;20021;-63
2022/04/10 04:25:16;;;;;;;9.77;2.13;;;;;;;3.55;64.07;98916.44;5044042;28;20052;-63
2022/04/10 04:27:41;;;;;;;12.75;1.70;;;;;;;3.71;63.47;98940.34;5044061;28;20029;-63
2022/04/10 04:30:07;;;;;;;13.70;1.92;;;;;;;3.82;63.74;98932.59;5043820;28;20052;-62
2022/04/10 04:32:32;;;;;;;6.00;1.85;;;;;;;3.88;63.74;98917.19;5043907;28;20017;-64
2022/04/10 04:34:57;;;;;;;12.52;2.08;;;;;;;4.02;63.31;98939.34;5043864;28;20029;-63
2022/04/10 04:37:23;;;;;;;8.70;1.70;;;;;;;4.12;63.08;98937.59;5043809;28;20041;-64
2022/04/10 04:39:48;;;;;;;7.43;1.70;;;;;;;4.37;62.94;98935.72;5043720;28;20048;-63
2022/04/10 04:42:14;;;;;;;18.05;2.30;;;;;;;4.66;63.22;98942.38;5043536;28;20608;-65
2022/04/10 04:44:39;;;;;;;3.45;1.27;;;;;;;4.98;61.99;98942.09;5044049;28;20068;-63
2022/04/10 04:47:05;;;;;;;12.23;2.42;;;;;;;5.24;60.31;98953.88;5043667;28;20540;-64
2022/04/10 04:49:30;;;;;;;6.95;1.58;;;;;;;5.43;59.63;98954.53;5043805;28;20067;-65
2022/04/10 04:51:56;;;;;;;8.35;2.00;;;;;;;5.52;59.86;98962.16;5043629;28;20030;-63
2022/04/10 04:54:21;;;;;;;9.90;1.80;;;;;;;5.69;59.50;98967.09;5043726;28;20026;-64
2022/04/10 04:56:47;;;;;;;9.52;1.38;;;;;;;5.97;59.59;98967.66;5043669;28;20120;-65
2022/04/10 04:59:14;;;;;;;13.32;2.13;;;;;;;6.38;58.80;98966.25;5043544;28;20175;-63
2022/04/10 05:01:41;;;;;;;9.02;1.73;;;;;;;6.88;59.11;98970.66;5043405;28;20025;-64
2022/04/10 05:04:07;;;;;;;8.40;1.40;;;;;;;7.22;56.55;98978.72;5043373;28;20036;-64
2022/04/10 05:06:32;;;;;;;8.63;1.30;;;;;;;7.19;54.25;98970.13;5025735;28;20026;-63
2022/04/10 05:08:57;;;;;;;9.38;1.80;;;;;;;7.20;53.96;98981.31;5025750;28;20109;-63
2022/04/10 05:11:23;;;;;;;8.60;2.25;;;;;;;7.29;53.57;98991.47;5025673;28;20067;-65
2022/04/10 05:13:48;;;;;;;7.53;2.15;;;;;;;7.60;53.66;98995.22;5043305;28;20056;-65
2022/04/10 05:16:14;;;;;;;7.55;1.70;;;;;;;7.89;53.75;98996.38;5042646;28;20055;-63
2022/04/10 05:18:39;;;;;;;9.02;1.75;;;;;;;7.95;52.51;98990.25;5043449;28;20029;-63
2022/04/10 05:21:04;;;;;;;6.28;1.80;;;;;;;7.96;50.78;98994.53;5025540;28;20029;-63
2022/04/10 05:23:30;;;;;;;10.05;2.47;;;;;;;7.55;51.14;99007.38;5043328;28;20056;-65
2022/04/10 05:25:55;;;;;;;8.82;1.63;;;;;;;7.39;52.39;99010.25;5043484;28;20033;-64
2022/04/10 05:28:22;;;;;;;8.55;1.70;;;;;;;7.36;51.86;99012.88;5043117;28;20651;-65
2022/04/10 05:30:47;;;;;;;8.55;1.30;;;;;;;7.17;52.40;99017.50;5042974;28;20041;-64
2022/04/10 05:33:13;;;;;;;2.72;1.00;;;;;;;7.04;52.31;99016.84;5043279;28;20035;-64
2022/04/10 05:35:38;;;;;;;7.70;1.52;;;;;;;7.21;53.44;99018.28;5043119;28;20040;-64
2022/04/10 05:38:04;;;;;;;7.90;1.50;;;;;;;7.83;53.86;99030.09;5025400;28;20033;-64
2022/04/10 05:40:30;;;;;;;11.02;2.00;;;;;;;8.53;53.40;99028.66;5042970;28;20022;-64
2022/04/10 05:42:56;;;;;;;4.35;1.40;;;;;;;9.25;52.76;99033.94;5043334;28;20013;-63
2022/04/10 05:45:21;;;;;;;6.90;1.88;;;;;;;9.90;51.84;99039.16;5043390;28;20022;-63
2022/04/10 05:47:47;;;;;;;8.50;1.75;;;;;;;10.52;49.00;99046.94;5043160;28;20033;-62
2022/04/10 05:50:13;;;;;;;6.05;1.55;;;;;;;10.97;45.95;99044.72;5043222;28;20028;-62
2022/04/10 05:52:39;;;;;;;7.13;1.48;;;;;;;10.96;44.67;99040.41;5042974;28;20029;-61
2022/04/10 05:55:09;;;;;;;8.27;1.75;;;;;;;10.96;44.16;99043.84;5042421;28;20033;-62
2022/04/10 05:57:35;;;;;;;6.97;1.52;;;;;;;11.18;44.19;99048.38;5042398;28;20029;-62
2022/04/10 06:00:01;;;;;;;6.72;1.45;;;;;;;11.45;43.51;99047.47;5042492;28;20021;-62
2022/04/10 06:02:27;;;;;;;6.32;1.75;;;;;;;11.81;41.49;99064.44;5024353;28;20025;-62
2022/04/10 06:04:53;;;;;;;8.48;1.30;;;;;;;12.14;42.06;99046.81;5042338;28;20021;-62
2022/04/10 06:07:18;;;;;;;9.02;1.52;;;;;;;12.68;41.01;99050.91;5042404;28;20013;-62
2022/04/10 06:09:43;;;;;;;9.00;1.90;;;;;;;12.80;40.40;99052.16;5042410;28;20033;-62
2022/04/10 06:12:09;;;;;;;5.95;1.55;;;;;;;13.03;38.59;99058.22;5042183;28;20021;-62
2022/04/10 06:14:35;;;;;;;12.23;2.28;;;;;;;13.34;39.16;99054.34;5042141;28;20112;-62
2022/04/10 06:17:00;;;;;;;4.25;1.27;;;;;;;13.53;37.10;99048.38;5042206;28;20017;-63
2022/04/10 06:19:27;;;;;;;6.90;1.58;;;;;;;13.84;37.38;99052.28;5042313;28;20028;-62
2022/04/10 06:21:53;;;;;;;7.20;1.98;;;;;;;13.86;36.16;99079.16;5042397;28;20026;-62
2022/04/10 06:24:20;;;;;;;6.43;1.45;;;;;;;13.86;35.46;99078.31;5042323;28;20125;-62
2022/04/10 06:26:48;;;;;;;8.20;2.08;;;;;;;13.73;35.88;99084.06;5044212;28;20081;-63
2022/04/10 06:29:14;;;;;;;5.57;1.48;;;;;;;13.73;35.16;99085.81;5046011;28;20060;-62
2022/04/10 06:31:39;;;;;;;5.10;1.60;;;;;;;13.94;35.80;99094.47;5045947;28;20022;-63
2022/04/10 06:34:04;;;;;;;9.75;1.67;;;;;;;14.16;35.62;99085.69;5045711;28;20075;-62
2022/04/10 06:36:30;;;;;;;6.80;1.50;;;;;;;14.34;34.59;99085.78;5045865;28;20033;-61
2022/04/10 06:38:55;;;;;;;4.20;1.35;;;;;;;14.37;34.17;99091.72;5045877;28;20068;-61
2022/04/10 06:41:20;;;;;;;7.90;1.50;;;;;;;14.35;35.26;99098.75;5045941;28;20025;-62
2022/04/10 06:43:46;;;;;;;7.80;2.15;;;;;;;14.61;33.72;99093.25;5028376;28;20032;-62
2022/04/10 06:46:11;;;;;;;3.17;1.38;;;;;;;14.71;33.22;99098.91;5046074;28;20029;-62
2022/04/10 06:48:37;;;;;;;6.80;1.70;;;;;;;14.55;31.63;99102.25;5046081;28;20032;-62
2022/04/10 06:51:03;;;;;;;9.07;2.28;;;;;;;14.36;32.95;99104.84;5045998;28;20495;-62
2022/04/10 06:53:28;;;;;;;5.93;1.65;;;;;;;14.11;32.76;99092.88;5046084;28;20029;-62
2022/04/10 06:55:54;;;;;;;5.35;1.65;;;;;;;13.99;33.51;99108.13;5046011;28;20479;-63
2022/04/10 06:58:22;;;;;;;5.00;2.25;;;;;;;13.79;33.33;99111.63;5045765;28;20017;-64
2022/04/10 07:00:50;;;;;;;3.60;1.60;;;;;;;13.49;32.54;99122.41;5045521;28;20029;-63
2022/04/10 07:03:16;;;;;;;9.60;1.58;;;;;;;13.43;33.53;99125.25;5045889;28;20234;-62
2022/04/10 07:05:41;;;;;;;8.45;1.70;;;;;;;13.66;34.04;99132.16;5045888;28;20085;-62
2022/04/10 07:08:07;;;;;;;8.05;1.38;;;;;;;14.17;33.25;99126.53;5045539;28;20135;-63
2022/04/10 07:10:33;;;;;;;6.70;1.73;;;;;;;14.33;31.79;99131.09;5045566;28;20041;-62
2022/04/10 07:12:59;;;;;;;7.93;1.50;;;;;;;14.18;32.32;99127.38;5045508;28;20073;-62
2022/04/10 07:15:24;;;;;;;8.70;1.50;;;;;;;14.27;31.36;99132.19;5045695;28;20089;-63
2022/04/10 07:17:50;;;;;;;8.18;1.67;;;;;;;14.56;32.82;99139.63;5027481;28;20080;-64
2022/04/10 07:20:15;;;;;;;6.30;1.55;;;;;;;14.82;31.71;99140.22;5045477;28;20028;-68
2022/04/10 07:25:24;;;;;;;8.35;1.80;;;;;;;15.45;30.23;99159.03;5045603;28;20059;-64
2022/04/10 07:27:49;;;;;;;5.30;1.77;;;;;;;15.57;30.45;99153.25;5045272;28;20021;-65
2022/04/10 07:30:15;;;;;;;7.43;1.52;;;;;;;15.69;29.05;99151.75;5044980;28;20048;-62
2022/04/10 07:32:40;;;;;;;3.97;1.40;;;;;;;15.63;29.23;99149.47;5045030;28;20475;-61
2022/04/10 07:35:06;;;;;;;5.07;1.25;;;;;;;15.58;29.94;99144.47;5045134;28;20025;-61
2022/04/10 07:37:32;;;;;;;5.57;1.33;;;;;;;15.74;30.58;99143.69;5044175;28;20056;-61
2022/04/10 07:39:58;;;;;;;5.60;1.35;;;;;;;15.72;28.87;99164.69;5044886;28;20048;-63
2022/04/10 07:42:23;;;;;;;6.70;1.17;;;;;;;15.30;28.79;99160.66;5045085;28;20384;-63
2022/04/10 07:44:49;;;;;;;3.97;1.05;;;;;;;14.94;29.51;99164.94;5045102;28;20029;-62
2022/04/10 07:47:26;;;;;;;4.63;1.15;;;;;;;14.87;29.77;99162.59;5044554;28;20081;-61
2022/04/10 07:49:55;;;;;;;6.22;1.45;;;;;;;14.91;29.83;99168.53;5045003;28;20040;-61
2022/04/10 07:52:21;;;;;;;4.40;1.48;;;;;;;14.82;29.72;99169.81;5044821;28;20025;-60
2022/04/10 07:54:48;;;;;;;8.38;1.40;;;;;;;14.94;30.13;99173.63;5044877;28;20029;-62
2022/04/10 07:57:13;;;;;;;6.43;1.35;;;;;;;15.15;30.33;99180.53;5044765;28;20528;-61
2022/04/10 07:59:38;;;;;;;4.85;1.20;;;;;;;15.47;29.61;99186.84;5044401;28;20093;-63
2022/04/10 08:02:04;;;;;;;4.18;1.40;;;;;;;15.60;29.33;99178.38;5044553;28;20089;-63
2022/04/10 08:04:29;;;;;;;7.38;1.48;;;;;;;15.65;29.02;99191.25;5044393;28;20117;-61
2022/04/10 08:06:55;;;;;;;6.18;1.15;;;;;;;15.82;28.38;99191.25;5044513;28;20037;-61
2022/04/10 08:09:20;;;;;;;6.90;1.20;;;;;;;16.07;27.88;99189.22;5044263;28;20022;-62
2022/04/10 08:11:45;;;;;;;7.50;1.38;;;;;;;16.04;27.84;99191.97;5044399;28;20025;-61
2022/04/10 08:14:11;;;;;;;8.32;1.27;;;;;;;16.13;27.59;99196.75;5044315;28;20013;-62
2022/04/10 08:16:36;;;;;;;4.32;1.58;;;;;;;16.15;26.69;99202.72;5044048;28;20025;-62
2022/04/10 08:19:02;;;;;;;7.88;1.45;;;;;;;16.00;27.46;99206.13;5044390;28;20029;-61
2022/04/10 08:21:27;;;;;;;6.65;1.45;;;;;;;15.83;27.24;99216.47;5044417;28;20497;-62
2022/04/10 08:23:53;;;;;;;9.30;1.25;;;;;;;15.82;27.39;99214.81;5044328;28;20071;-66
2022/04/10 08:26:18;;;;;;;8.40;1.40;;;;;;;16.00;27.52;99229.69;5044139;28;20021;-63
2022/04/10 08:28:43;;;;;;;5.05;1.20;;;;;;;16.35;26.55;99214.81;5044128;28;20100;-63
2022/04/10 08:31:09;;;;;;;6.15;1.63;;;;;;;16.32;26.01;99225.44;5044093;28;20045;-62
2022/04/10 08:33:34;;;;;;;4.13;1.23;;;;;;;16.32;25.88;99214.97;5043996;28;20025;-62
2022/04/10 08:35:59;;;;;;;4.88;1.45;;;;;;;16.10;25.73;99228.31;5026049;28;20029;-62
2022/04/10 08:38:24;;;;;;;7.10;1.65;;;;;;;15.96;25.86;99231.56;5043839;28;20025;-62
2022/04/10 08:40:59;;;;;;;4.93;1.50;;;;;;;15.95;26.09;99235.13;5043711;28;20045;-61
2022/04/10 08:43:25;;;;;;;5.20;1.20;;;;;;;15.95;25.84;99243.84;5043879;28;20104;-62
2022/04/10 08:45:51;;;;;;;2.85;1.00;;;;;;;15.99;25.64;99236.69;5026283;28;20017;-62
2022/04/10 08:48:18;;;;;;;4.43;1.00;;;;;;;15.74;26.05;99250.97;5043751;28;20063;-66
2022/04/10 08:50:43;;;;;;;3.85;1.08;;;;;;;15.98;26.21;99243.72;5043756;28;20093;-62
2022/04/10 08:53:09;;;;;;;5.90;1.50;;;;;;;16.17;26.08;99250.63;5043729;28;20035;-62
2022/04/10 08:55:34;;;;;;;4.50;1.65;;;;;;;16.53;25.73;99251.47;5043625;28;20029;-62
2022/04/10 08:58:03;;;;;;;8.27;1.58;;;;;;;16.77;25.32;99251.09;5043696;28;20052;-63
2022/04/10 09:00:28;;;;;;;5.63;1.25;;;;;;;16.79;24.57;99243.97;5043453;28;20036;-63
2022/04/10 09:02:53;;;;;;;7.80;1.50;;;;;;;16.81;24.20;99263.09;5043472;28;20025;-62
2022/04/10 09:05:24;;;;;;;4.60;0.98;;;;;;;16.92;24.83;99265.16;5043534;28;20021;-63
2022/04/10 09:08:18;;;;;;;5.75;1.02;;;;;;;17.29;24.30;99270.22;5043441;28;20268;-62
2022/04/10 09:11:03;;;;;;;2.95;1.58;;;;;;;17.46;24.00;99273.66;5043474;28;20044;-63
2022/04/10 09:13:30;;;;;;;3.75;1.23;;;;;;;16.95;23.34;99274.63;5043343;28;20108;-63
2022/04/10 09:16:11;;;;;;;12.73;1.50;;;;;;;16.58;24.50;99275.63;5043558;28;20034;-60
2022/04/10 09:18:46;;;;;;;4.28;0.90;;;;;;;16.31;24.30;99283.97;5025507;28;20025;-62
2022/04/10 09:21:12;;;;;;;7.13;1.10;;;;;;;16.21;24.59;99295.84;5043251;28;20483;-64
2022/04/10 09:23:37;;;;;;;3.10;1.00;;;;;;;16.52;24.90;99291.66;5043333;28;20056;-62
2022/04/10 09:26:02;;;;;;;4.15;1.27;;;;;;;16.79;24.86;99285.91;5042908;28;20021;-60
2022/04/10 09:28:42;;;;;;;5.10;1.60;;;;;;;17.13;24.70;99293.81;5043199;28;20017;-60
2022/04/10 09:31:34;;;;;;;3.20;0.90;;;;;;;17.69;24.22;99301.28;5042860;28;20064;-58
2022/04/10 09:34:05;;;;;;;4.07;1.20;;;;;;;18.03;23.36;99308.16;5039310;28;20539;-60
2022/04/10 09:36:33;;;;;;;6.03;1.45;;;;;;;17.98;23.03;99312.81;5043082;28;20055;-60
2022/04/10 09:38:59;;;;;;;4.38;0.90;;;;;;;17.99;22.84;99325.03;5043317;28;20021;-60
2022/04/10 09:41:24;;;;;;;5.43;1.55;;;;;;;17.84;23.46;99310.03;5043399;28;20053;-61
2022/04/10 09:43:50;;;;;;;4.88;1.35;;;;;;;17.51;23.11;99324.13;5043006;28;20014;-59
2022/04/10 09:46:15;;;;;;;3.40;0.90;;;;;;;17.30;23.53;99328.78;5042797;28;20022;-60
2022/04/10 09:48:41;;;;;;;8.80;1.20;;;;;;;17.43;23.32;99321.06;5043092;28;20097;-61
2022/04/10 09:51:09;;;;;;;4.63;1.17;;;;;;;17.21;23.86;99306.50;5042997;28;20025;-61
2022/04/10 09:53:35;;;;;;;3.33;1.08;;;;;;;16.97;22.80;99310.31;5042973;28;20030;-61
2022/04/10 09:56:04;;;;;;;3.35;0.93;;;;;;;17.07;23.33;99315.94;5043055;28;20393;-60
2022/04/10 09:58:32;;;;;;;7.95;1.52;;;;;;;17.42;23.60;99337.75;5042830;28;20028;-60
2022/04/10 10:00:59;;;;;;;6.25;1.50;;;;;;;17.66;22.50;99334.69;5025571;28;20021;-60
2022/04/10 10:03:28;;;;;;;11.57;1.55;;;;;;;17.70;22.93;99328.34;5046335;28;20028;-60
2022/04/10 10:05:55;;;;;;;10.45;1.83;;;;;;;18.19;23.36;99340.53;5046239;28;20719;-61
2022/04/10 10:08:21;;;;;;;9.43;1.27;;;;;;;18.65;22.49;99333.50;5046321;28;20076;-60
2022/04/10 10:10:47;;;;;;;6.90;1.35;;;;;;;18.71;21.98;99345.41;5046366;28;20025;-60
2022/04/10 10:13:13;;;;;;;5.72;0.85;;;;;;;18.72;21.46;99344.50;5046109;28;20051;-62
2022/04/10 10:15:39;;;;;;;5.78;1.17;;;;;;;18.28;21.75;99357.53;5046615;28;20037;-61
2022/04/10 10:18:10;;;;;;;6.82;1.20;;;;;;;18.38;21.97;99359.63;5046328;28;20464;-61
2022/04/10 10:20:40;;;;;;;4.25;1.40;;;;;;;18.24;22.79;99366.53;5046177;28;20029;-61
2022/04/10 10:23:13;;;;;;;9.55;1.60;;;;;;;18.26;23.20;99356.75;5046235;28;20017;-61
2022/04/10 10:26:03;;;;;;;7.20;1.77;;;;;;;18.37;22.78;99355.31;5028111;28;20025;-60
2022/04/10 10:28:56;;;;;;;3.92;1.17;;;;;;;18.03;23.08;99368.56;5046229;28;20029;-68
2022/04/10 10:31:54;;;;;;;6.50;1.58;;;;;;;18.02;23.67;99365.06;5046148;28;20049;-66
2022/04/10 10:34:23;;;;;;;7.57;1.77;;;;;;;18.28;23.53;99370.66;5046219;28;20022;-66
2022/04/10 10:36:49;;;;;;;5.47;1.70;;;;;;;18.29;23.23;99379.41;5045968;28;20028;-61
2022/04/10 10:39:14;;;;;;;5.55;1.33;;;;;;;17.64;22.96;99361.03;5045915;28;20057;-69
2022/04/10 10:41:40;;;;;;;3.58;1.40;;;;;;;17.49;23.16;99362.72;5045668;28;20048;-59
2022/04/10 10:44:34;;;;;;;4.20;1.50;;;;;;;17.38;23.13;99380.81;5045972;28;20021;-60
2022/04/10 10:47:02;;;;;;;4.00;1.35;;;;;;;17.38;23.50;99365.91;5044993;28;20037;-60
2022/04/10 10:49:29;;;;;;;3.35;1.05;;;;;;;17.61;23.80;99384.81;5045662;28;20033;-61
2022/04/10 10:51:56;;;;;;;6.32;1.50;;;;;;;17.99;23.44;99386.25;5045772;28;20063;-60
2022/04/10 10:54:24;;;;;;;8.60;1.73;;;;;;;17.94;23.69;99393.53;5045695;28;20071;-61
2022/04/10 10:56:50;;;;;;;5.38;1.15;;;;;;;17.82;23.40;99395.94;5045639;28;20216;-61
2022/04/10 10:59:32;;;;;;;5.53;1.27;;;;;;;17.54;24.05;99397.41;5045638;28;20021;-61
2022/04/10 11:02:11;;;;;;;5.60;1.58;;;;;;;17.36;24.55;99385.28;5045428;28;20485;-60
2022/04/10 11:04:52;;;;;;;3.65;1.23;;;;;;;17.36;24.61;99386.16;5045655;28;20030;-60
2022/04/10 11:07:18;;;;;;;5.40;1.30;;;;;;;17.24;24.73;99405.16;5045444;28;20081;-59
2022/04/10 11:10:00;;;;;;;5.95;1.90;;;;;;;17.68;24.05;99403.72;5045233;28;20052;-61
2022/04/10 11:12:35;;;;;;;9.18;1.42;;;;;;;17.74;23.52;99413.88;5044132;28;20501;-64
2022/04/10 11:15:21;;;;;;;6.70;1.60;;;;;;;17.49;23.90;99404.72;5045104;28;20040;-60
2022/04/10 11:17:48;;;;;;;5.43;0.82;;;;;;;17.69;23.83;99405.41;5045077;28;20280;-60
2022/04/10 11:20:16;;;;;;;3.65;1.52;;;;;;;17.29;24.19;99419.72;5045028;28;20025;-60
2022/04/10 11:22:49;;;;;;;5.03;1.50;;;;;;;17.19;25.11;99418.50;5044926;28;20036;-59
2022/04/10 11:25:41;;;;;;;7.93;1.80;;;;;;;17.31;25.37;99420.50;5044936;28;20029;-60
2022/04/10 11:28:11;;;;;;;3.90;1.52;;;;;;;16.21;26.56;99421.53;5044777;28;20025;-60
2022/04/10 11:30:39;;;;;;;12.57;2.22;;;;;;;14.56;28.72;99446.06;5044863;28;20045;-59
2022/04/10 11:33:07;;;;;;;11.52;2.33;;;;;;;13.33;30.80;99448.84;5026848;28;20063;-59
2022/04/10 11:35:34;;;;;;;11.05;1.73;;;;;;;12.45;32.52;99437.00;5044742;28;20033;-61
2022/04/10 11:38:00;;;;;;;9.18;1.50;;;;;;;11.86;33.87;99445.69;5044668;28;20025;-60
2022/04/10 11:40:29;;;;;;;13.35;2.15;;;;;;;11.28;35.00;99459.41;5044700;28;20048;-61